createdAt,value
2019-05-25T00:01:41.427Z,10.40
2019-05-25T00:04:11.897Z,10.40
2019-05-25T00:06:42.647Z,10.40
2019-05-25T00:09:13.168Z,10.40
2019-05-25T00:11:45.272Z,10.30
2019-05-25T00:14:15.771Z,10.30
2019-05-25T00:16:58.541Z,10.20
2019-05-25T00:19:28.966Z,10.20
2019-05-25T00:21:59.331Z,10.10
2019-05-25T00:24:29.768Z,10.20
2019-05-25T00:27:01.658Z,10.20
2019-05-25T00:29:32.258Z,10.20
2019-05-25T00:32:03.867Z,10.10
2019-05-25T00:34:34.347Z,10.00
2019-05-25T00:37:04.848Z,10.00
2019-05-25T00:39:36.547Z,9.90
2019-05-25T00:42:06.946Z,9.80
2019-05-25T00:44:37.286Z,9.70
2019-05-25T00:47:07.700Z,9.70
2019-05-25T00:49:38.146Z,9.70
2019-05-25T00:52:08.520Z,9.60
2019-05-25T00:54:38.976Z,9.60
2019-05-25T00:57:09.831Z,9.50
2019-05-25T00:59:40.321Z,9.50
2019-05-25T01:02:10.642Z,9.50
2019-05-25T01:04:41.093Z,9.50
2019-05-25T01:07:11.498Z,9.40
2019-05-25T01:09:43.086Z,9.40
2019-05-25T01:12:13.459Z,9.30
2019-05-25T01:14:43.923Z,9.30
2019-05-25T01:17:14.286Z,9.30
2019-05-25T01:19:44.834Z,9.20
2019-05-25T01:22:15.277Z,9.20
2019-05-25T01:24:45.662Z,9.10
2019-05-25T01:27:20.905Z,9.10
2019-05-25T01:29:51.260Z,9.10
2019-05-25T01:32:24.569Z,9.10
2019-05-25T01:34:57.319Z,9.10
2019-05-25T01:37:27.311Z,9.10
2019-05-25T01:39:58.882Z,9.10
2019-05-25T01:42:29.223Z,9.10
2019-05-25T01:44:59.626Z,9.10
2019-05-25T01:47:30.063Z,9.10
2019-05-25T01:50:00.470Z,9.20
2019-05-25T01:52:30.816Z,9.20
2019-05-25T01:55:01.130Z,9.20
2019-05-25T01:57:31.646Z,9.20
2019-05-25T02:00:02.157Z,9.20
2019-05-25T02:02:32.653Z,9.20
2019-05-25T02:05:03.096Z,9.20
2019-05-25T02:07:33.588Z,9.30
2019-05-25T02:10:04.210Z,9.30
2019-05-25T02:12:34.672Z,9.40
2019-05-25T02:15:06.221Z,9.30
2019-05-25T02:17:36.654Z,9.30
2019-05-25T02:20:07.327Z,9.30
2019-05-25T02:22:37.692Z,9.30
2019-05-25T02:25:17.601Z,9.30
2019-05-25T02:27:41.092Z,9.40
2019-05-25T02:30:12.178Z,9.30
2019-05-25T02:32:42.662Z,9.40
2019-05-25T02:35:24.131Z,9.30
2019-05-25T02:37:54.461Z,9.30
2019-05-25T02:40:25.403Z,9.30
2019-05-25T02:42:55.997Z,9.30
2019-05-25T02:45:26.567Z,9.30
2019-05-25T02:47:57.066Z,9.30
2019-05-25T02:50:27.536Z,9.20
2019-05-25T02:52:57.994Z,9.30
2019-05-25T02:55:34.150Z,9.30
2019-05-25T03:01:12.915Z,9.30
2019-05-25T03:03:43.369Z,9.30
2019-05-25T03:06:14.333Z,9.30
2019-05-25T03:08:45.706Z,9.30
2019-05-25T03:11:16.920Z,9.30
2019-05-25T03:13:47.801Z,9.30
2019-05-25T03:16:18.259Z,9.20
2019-05-25T03:18:48.765Z,9.20
2019-05-25T03:21:19.077Z,9.20
2019-05-25T03:23:49.442Z,9.20
2019-05-25T03:26:20.867Z,9.20
2019-05-25T03:28:51.357Z,9.20
2019-05-25T03:31:22.118Z,9.20
2019-05-25T03:33:52.499Z,9.20
2019-05-25T03:36:22.918Z,9.20
2019-05-25T03:38:53.362Z,9.10
2019-05-25T03:41:23.903Z,9.10
2019-05-25T03:43:54.269Z,9.10
2019-05-25T03:46:24.625Z,9.10
2019-05-25T03:48:55.086Z,9.10
2019-05-25T03:51:25.877Z,9.20
2019-05-25T03:53:56.292Z,9.10
2019-05-25T03:56:26.602Z,9.10
2019-05-25T03:58:57.017Z,9.10
2019-05-25T04:01:27.452Z,9.10
2019-05-25T04:03:57.892Z,9.10
2019-05-25T04:06:28.248Z,9.10
2019-05-25T04:08:58.729Z,9.10
2019-05-25T04:11:30.133Z,9.20
2019-05-25T04:17:25.733Z,9.10
2019-05-25T04:19:56.172Z,9.10
2019-05-25T04:22:26.546Z,9.10
2019-05-25T04:24:56.960Z,9.00
2019-05-25T04:27:27.611Z,9.00
2019-05-25T04:29:57.985Z,9.00
2019-05-25T04:32:28.392Z,9.00
2019-05-25T04:34:58.783Z,9.00
2019-05-25T04:37:29.154Z,9.10
2019-05-25T04:39:59.578Z,9.10
2019-05-25T04:42:29.956Z,9.20
2019-05-25T04:45:00.284Z,9.20
2019-05-25T04:47:30.753Z,9.20
2019-05-25T04:50:01.127Z,9.30
2019-05-25T04:52:31.599Z,9.50
2019-05-25T04:55:01.949Z,9.50
2019-05-25T04:57:32.459Z,9.60
2019-05-25T05:00:02.867Z,9.60
2019-05-25T05:02:33.272Z,9.80
2019-05-25T05:05:03.947Z,9.90
2019-05-25T05:07:34.418Z,10.20
2019-05-25T05:10:08.299Z,10.20
2019-05-25T05:12:39.723Z,10.20
2019-05-25T05:15:10.631Z,10.40
2019-05-25T05:17:41.063Z,10.40
2019-05-25T05:20:13.094Z,10.40
2019-05-25T05:22:43.708Z,10.40
2019-05-25T05:25:14.401Z,10.50
2019-05-25T05:27:46.093Z,10.60
2019-05-25T05:30:16.557Z,10.80
2019-05-25T05:32:46.936Z,10.90
2019-05-25T05:36:00.482Z,10.90
2019-05-25T05:38:32.222Z,11.00
2019-05-25T05:41:03.703Z,11.00
2019-05-25T05:43:37.443Z,11.00
2019-05-25T05:46:09.878Z,11.00
2019-05-25T05:48:43.161Z,11.20
2019-05-25T05:51:16.695Z,11.40
2019-05-25T05:53:47.845Z,11.50
2019-05-25T05:56:21.536Z,12.00
2019-05-25T05:58:52.101Z,12.70
2019-05-25T06:01:22.325Z,13.40
2019-05-25T06:03:52.754Z,14.20
2019-05-25T06:06:23.189Z,14.60
2019-05-25T06:08:53.590Z,14.80
2019-05-25T06:11:24.361Z,14.70
2019-05-25T06:13:54.887Z,14.40
2019-05-25T06:16:25.295Z,14.20
2019-05-25T06:18:55.996Z,14.30
2019-05-25T06:21:26.583Z,14.30
2019-05-25T06:23:57.084Z,14.40
2019-05-25T06:26:27.554Z,15.00
2019-05-25T06:28:58.708Z,15.70
2019-05-25T06:31:29.228Z,16.50
2019-05-25T06:33:59.674Z,15.90
2019-05-25T06:36:30.171Z,15.30
2019-05-25T06:39:00.618Z,15.60
2019-05-25T06:41:32.668Z,15.70
2019-05-25T06:47:27.273Z,15.30
2019-05-25T06:49:57.708Z,15.20
2019-05-25T06:52:28.053Z,15.20
2019-05-25T06:54:58.410Z,15.10
2019-05-25T06:57:42.452Z,15.00
2019-05-25T07:00:03.161Z,15.30
2019-05-25T07:02:33.625Z,16.50
2019-05-25T07:05:04.499Z,17.10
2019-05-25T07:07:34.922Z,17.10
2019-05-25T07:10:06.638Z,16.90
2019-05-25T07:12:39.841Z,17.30
2019-05-25T07:15:10.890Z,17.80
2019-05-25T07:17:41.394Z,17.80
2019-05-25T07:20:13.269Z,17.40
2019-05-25T07:22:44.712Z,17.40
2019-05-25T07:25:15.179Z,17.80
2019-05-25T07:27:58.223Z,18.30
2019-05-25T07:30:17.998Z,18.40
2019-05-25T07:32:51.530Z,18.30
2019-05-25T07:35:24.091Z,18.00
2019-05-25T07:37:55.155Z,17.90
2019-05-25T07:40:25.895Z,17.80
2019-05-25T07:42:56.366Z,17.70
2019-05-25T07:45:26.779Z,17.70
2019-05-25T07:47:58.126Z,17.50
2019-05-25T07:50:28.748Z,17.40
2019-05-25T07:52:59.114Z,17.40
2019-05-25T07:55:29.498Z,18.20
2019-05-25T07:58:15.854Z,19.30
2019-05-25T08:00:32.547Z,19.90
2019-05-25T08:03:03.221Z,20.00
2019-05-25T08:05:33.685Z,20.30
2019-05-25T08:08:04.327Z,19.90
2019-05-25T08:14:18.195Z,19.80
2019-05-25T08:16:48.623Z,20.20
2019-05-25T08:19:19.134Z,20.80
2019-05-25T08:21:49.619Z,20.80
2019-05-25T08:24:20.331Z,20.60
2019-05-25T08:26:50.939Z,20.30
2019-05-25T08:29:21.407Z,20.00
2019-05-25T08:31:51.838Z,19.70
2019-05-25T08:34:22.479Z,19.40
2019-05-25T08:36:53.019Z,19.40
2019-05-25T08:39:23.384Z,19.40
2019-05-25T08:41:53.741Z,19.50
2019-05-25T08:44:24.124Z,19.30
2019-05-25T08:46:55.436Z,19.10
2019-05-25T08:49:28.904Z,20.10
2019-05-25T08:51:59.244Z,20.20
2019-05-25T08:54:29.699Z,19.20
2019-05-25T08:57:57.028Z,18.70
2019-05-25T09:00:27.499Z,18.50
2019-05-25T09:02:58.379Z,18.30
2019-05-25T09:05:28.842Z,18.50
2019-05-25T09:07:59.300Z,18.30
2019-05-25T09:10:29.866Z,18.30
2019-05-25T09:13:00.237Z,18.00
2019-05-25T09:15:30.669Z,18.00
2019-05-25T09:18:01.043Z,17.90
2019-05-25T09:20:31.434Z,17.60
2019-05-25T09:23:01.939Z,17.20
2019-05-25T09:25:32.444Z,16.80
2019-05-25T09:28:02.848Z,16.70
2019-05-25T09:30:33.857Z,16.70
2019-05-25T09:33:04.987Z,16.60
2019-05-25T09:35:36.103Z,16.50
2019-05-25T09:38:06.509Z,16.20
2019-05-25T09:40:37.037Z,16.00
2019-05-25T09:43:10.987Z,15.70
2019-05-25T09:45:41.489Z,15.60
2019-05-25T09:48:11.988Z,15.20
2019-05-25T09:50:42.654Z,15.10
2019-05-25T09:53:13.136Z,15.10
2019-05-25T09:55:44.573Z,15.10
2019-05-25T09:58:15.044Z,14.90
2019-05-25T10:00:45.642Z,15.10
2019-05-25T10:03:16.146Z,15.60
2019-05-25T10:05:46.629Z,16.10
2019-05-25T10:08:17.069Z,15.90
2019-05-25T10:10:47.447Z,16.00
2019-05-25T10:13:18.904Z,16.60
2019-05-25T10:15:49.328Z,17.20
2019-05-25T10:18:19.779Z,17.20
2019-05-25T10:20:50.170Z,17.60
2019-05-25T10:23:20.630Z,17.10
2019-05-25T10:25:51.214Z,16.40
2019-05-25T10:28:22.137Z,15.90
2019-05-25T10:30:52.559Z,15.60
2019-05-25T10:33:24.203Z,15.20
2019-05-25T10:35:54.668Z,15.00
2019-05-25T10:38:25.263Z,15.00
2019-05-25T10:40:58.533Z,15.20
2019-05-25T10:43:27.781Z,15.40
2019-05-25T10:45:59.085Z,15.40
2019-05-25T10:48:29.478Z,15.50
2019-05-25T10:51:00.087Z,15.60
2019-05-25T10:53:30.659Z,16.00
2019-05-25T10:56:02.070Z,15.90
2019-05-25T10:58:32.879Z,15.90
2019-05-25T11:01:03.299Z,16.10
2019-05-25T11:07:01.394Z,16.80
2019-05-25T11:09:31.843Z,16.50
2019-05-25T11:12:02.251Z,16.90
2019-05-25T11:14:32.700Z,16.70
2019-05-25T11:17:03.229Z,16.60
2019-05-25T11:19:33.785Z,16.20
2019-05-25T11:22:04.174Z,16.10
2019-05-25T11:24:34.573Z,15.80
2019-05-25T11:27:05.047Z,15.60
2019-05-25T11:29:35.564Z,15.50
2019-05-25T11:32:07.544Z,15.50
2019-05-25T11:34:40.064Z,15.40
2019-05-25T11:37:10.482Z,15.40
2019-05-25T11:39:40.917Z,15.60
2019-05-25T11:42:11.285Z,15.60
2019-05-25T11:48:17.953Z,15.60
2019-05-25T11:50:48.387Z,15.30
2019-05-25T11:53:18.784Z,15.40
2019-05-25T11:55:49.217Z,15.40
2019-05-25T11:58:21.822Z,15.50
2019-05-25T12:00:52.583Z,15.60
2019-05-25T12:03:23.158Z,15.50
2019-05-25T12:05:53.618Z,15.60
2019-05-25T12:08:24.089Z,16.10
2019-05-25T12:10:54.596Z,16.60
2019-05-25T12:13:25.085Z,16.70
2019-05-25T12:15:55.565Z,16.60
2019-05-25T12:18:26.118Z,16.50
2019-05-25T12:20:56.684Z,16.60
2019-05-25T12:23:27.165Z,17.20
2019-05-25T12:25:57.699Z,17.60
2019-05-25T12:28:28.109Z,18.10
2019-05-25T12:30:58.661Z,17.90
2019-05-25T12:39:56.669Z,17.40
2019-05-25T12:42:31.285Z,17.30
2019-05-25T12:45:04.133Z,17.20
2019-05-25T12:47:34.773Z,16.90
2019-05-25T12:53:06.043Z,16.50
2019-05-25T12:55:36.643Z,16.20
2019-05-25T12:58:08.338Z,15.90
2019-05-25T13:00:39.106Z,15.60
2019-05-25T13:03:11.043Z,15.50
2019-05-25T13:05:42.015Z,15.50
2019-05-25T13:08:12.649Z,15.60
2019-05-25T13:10:44.265Z,15.60
2019-05-25T13:13:16.082Z,15.80
2019-05-25T13:15:46.579Z,16.00
2019-05-25T13:18:17.044Z,16.20
2019-05-25T13:20:47.651Z,16.20
2019-05-25T13:23:18.200Z,16.70
2019-05-25T13:25:48.798Z,17.00
2019-05-25T13:28:19.338Z,17.00
2019-05-25T13:30:51.513Z,16.80
2019-05-25T13:33:23.304Z,16.70
2019-05-25T13:35:55.124Z,17.00
2019-05-25T13:38:25.696Z,17.00
2019-05-25T13:40:56.159Z,17.10
2019-05-25T13:43:26.699Z,16.90
2019-05-25T13:45:57.099Z,16.70
2019-05-25T13:48:27.549Z,16.50
2019-05-25T13:50:58.014Z,16.30
2019-05-25T13:53:28.594Z,15.90
2019-05-25T13:55:59.016Z,15.30
2019-05-25T13:58:29.554Z,15.00
2019-05-25T14:01:01.131Z,14.90
2019-05-25T14:03:31.679Z,14.80
2019-05-25T14:06:03.116Z,14.80
2019-05-25T14:08:33.682Z,14.80
2019-05-25T14:11:04.230Z,14.80
2019-05-25T14:13:35.810Z,14.90
2019-05-25T14:16:07.591Z,14.90
2019-05-25T14:18:38.405Z,15.00
2019-05-25T14:21:09.035Z,15.10
2019-05-25T14:23:39.409Z,15.00
2019-05-25T14:26:09.854Z,14.90
2019-05-25T14:29:10.387Z,14.90
2019-05-25T14:31:45.984Z,14.80
2019-05-25T14:34:23.765Z,14.80
2019-05-25T14:36:57.880Z,14.80
2019-05-25T14:39:28.364Z,14.60
2019-05-25T14:42:03.394Z,14.40
2019-05-25T14:44:38.348Z,14.00
2019-05-25T14:47:08.879Z,13.90
2019-05-25T14:49:39.465Z,13.90
2019-05-25T14:52:10.053Z,13.80
2019-05-25T14:54:40.821Z,13.60
2019-05-25T14:57:11.498Z,13.60
2019-05-25T14:59:42.069Z,13.70
2019-05-25T15:02:12.514Z,13.60
2019-05-25T15:04:43.015Z,13.60
2019-05-25T15:07:13.943Z,13.60
2019-05-25T15:09:44.395Z,13.60
2019-05-25T15:12:15.250Z,13.50
2019-05-25T15:14:45.766Z,13.40
2019-05-25T15:17:16.328Z,13.50
2019-05-25T15:20:13.675Z,13.60
2019-05-25T15:22:46.832Z,13.50
2019-05-25T15:25:16.843Z,13.60
2019-05-25T15:27:47.375Z,13.60
2019-05-25T15:30:18.130Z,13.60
2019-05-25T15:32:49.054Z,13.50
2019-05-25T15:35:20.578Z,13.50
2019-05-25T15:37:51.733Z,13.60
2019-05-25T15:40:22.313Z,13.80
2019-05-25T15:42:52.810Z,14.00
2019-05-25T15:45:23.201Z,14.10
2019-05-25T15:47:53.590Z,14.20
2019-05-25T15:50:24.614Z,14.40
2019-05-25T15:52:56.817Z,14.60
2019-05-25T15:55:27.544Z,14.70
2019-05-25T15:57:59.003Z,14.90
2019-05-25T16:00:47.154Z,14.80
2019-05-25T16:03:19.274Z,14.60
2019-05-25T16:05:50.473Z,14.40
2019-05-25T16:11:27.376Z,14.30
2019-05-25T16:13:57.825Z,14.30
2019-05-25T16:16:30.206Z,14.30
2019-05-25T16:19:00.512Z,14.30
2019-05-25T16:21:30.999Z,14.30
2019-05-25T16:24:01.791Z,14.10
2019-05-25T16:26:45.854Z,14.00
2019-05-25T16:29:10.160Z,14.00
2019-05-25T16:31:40.647Z,13.80
2019-05-25T16:34:11.451Z,13.90
2019-05-25T16:36:42.046Z,14.00
2019-05-25T16:39:12.536Z,13.90
2019-05-25T16:41:43.039Z,14.00
2019-05-25T16:44:13.495Z,14.00
2019-05-25T16:46:43.914Z,14.00
2019-05-25T16:49:14.665Z,13.80
2019-05-25T16:55:06.741Z,13.60
2019-05-25T17:03:41.251Z,13.50
2019-05-25T17:06:11.834Z,13.50
2019-05-25T17:08:42.519Z,13.50
2019-05-25T17:11:15.349Z,13.60
2019-05-25T17:16:48.489Z,13.40
2019-05-25T17:19:19.151Z,13.40
2019-05-25T17:21:52.034Z,13.30
2019-05-25T17:24:22.515Z,13.30
2019-05-25T17:26:53.044Z,13.20
2019-05-25T17:29:23.666Z,13.10
2019-05-25T17:31:54.119Z,13.10
2019-05-25T17:34:25.649Z,13.10
2019-05-25T17:36:57.754Z,13.20
2019-05-25T17:39:29.366Z,13.20
2019-05-25T17:41:59.826Z,13.20
2019-05-25T17:44:30.283Z,13.20
2019-05-25T17:47:00.906Z,13.20
2019-05-25T17:49:31.344Z,13.30
2019-05-25T17:52:02.094Z,13.30
2019-05-25T17:54:32.745Z,13.30
2019-05-25T17:57:06.476Z,13.20
2019-05-25T17:59:37.026Z,13.00
2019-05-25T18:02:07.791Z,13.00
2019-05-25T18:04:39.975Z,12.90
2019-05-25T18:07:12.940Z,12.90
2019-05-25T18:09:43.493Z,12.90
2019-05-25T18:12:14.003Z,13.00
2019-05-25T18:14:44.706Z,13.10
2019-05-25T18:17:15.251Z,13.20
2019-05-25T18:19:47.405Z,13.30
2019-05-25T18:22:18.036Z,13.40
2019-05-25T18:24:48.430Z,13.30
2019-05-25T18:27:18.971Z,13.10
2019-05-25T18:29:49.667Z,13.00
2019-05-25T18:32:20.271Z,13.00
2019-05-25T18:34:50.733Z,12.90
2019-05-25T18:37:21.320Z,12.90
2019-05-25T18:39:51.722Z,12.90
2019-05-25T18:42:57.764Z,12.90
2019-05-25T18:45:28.249Z,12.90
2019-05-25T18:47:58.869Z,13.10
2019-05-25T18:50:29.275Z,13.10
2019-05-25T18:53:02.245Z,13.00
2019-05-25T18:55:58.356Z,12.90
2019-05-25T18:58:32.319Z,13.00
2019-05-25T19:01:03.669Z,13.00
2019-05-25T19:03:35.750Z,13.00
2019-05-25T19:06:06.318Z,12.90
2019-05-25T19:08:36.893Z,12.90
2019-05-25T19:11:09.539Z,12.80
2019-05-25T19:13:40.139Z,12.70
2019-05-25T19:16:11.107Z,12.70
2019-05-25T19:18:47.196Z,12.60
2019-05-25T19:21:20.315Z,12.60
2019-05-25T19:23:51.019Z,12.50
2019-05-25T19:26:21.895Z,12.40
2019-05-25T19:28:52.795Z,12.20
2019-05-25T19:31:23.421Z,12.20
2019-05-25T19:33:54.016Z,12.20
2019-05-25T19:36:25.971Z,12.10
2019-05-25T19:38:56.567Z,12.00
2019-05-25T19:41:27.695Z,11.70
2019-05-25T19:43:58.788Z,11.60
2019-05-25T19:46:30.199Z,11.60
2019-05-25T19:49:04.970Z,11.50
2019-05-25T19:51:38.462Z,11.50
2019-05-25T19:54:11.425Z,11.60
2019-05-25T19:56:42.059Z,11.50
2019-05-25T19:59:16.933Z,11.40
2019-05-25T20:01:47.955Z,11.50
2019-05-25T20:04:18.473Z,11.40
2019-05-25T20:06:49.035Z,11.40
2019-05-25T20:09:19.741Z,11.30
2019-05-25T20:11:50.241Z,11.20
2019-05-25T20:14:21.120Z,11.20
2019-05-25T20:16:56.035Z,11.10
2019-05-25T20:19:26.614Z,11.00
2019-05-25T20:21:57.140Z,11.00
2019-05-25T20:24:29.585Z,10.90
2019-05-25T20:27:03.087Z,10.90
2019-05-25T20:29:33.696Z,11.00
2019-05-25T20:32:04.320Z,10.90
2019-05-25T20:34:38.609Z,10.90
2019-05-25T20:37:09.880Z,10.80
2019-05-25T20:39:40.483Z,10.80
2019-05-25T20:42:15.083Z,10.80
2019-05-25T20:44:45.402Z,10.70
2019-05-25T20:47:16.125Z,10.80
2019-05-25T20:50:11.141Z,10.80
2019-05-25T20:53:32.627Z,10.70
2019-05-25T20:56:35.580Z,10.70
2019-05-25T20:59:41.456Z,10.70
2019-05-25T21:02:16.171Z,10.60
2019-05-25T21:04:54.376Z,10.50
2019-05-25T21:10:50.640Z,10.40
2019-05-25T21:13:40.320Z,10.30
2019-05-25T21:16:41.804Z,10.30
2019-05-25T21:20:01.660Z,10.10
2019-05-25T21:22:39.161Z,10.00
2019-05-25T21:25:12.908Z,9.90
2019-05-25T21:27:43.580Z,9.80
2019-05-25T21:30:15.621Z,9.80
2019-05-25T21:32:46.103Z,9.70
2019-05-25T21:35:16.638Z,9.60
2019-05-25T21:37:47.202Z,9.60
2019-05-25T21:40:17.846Z,9.50
2019-05-25T21:42:48.326Z,9.50
2019-05-25T21:45:19.038Z,9.40
2019-05-25T21:47:55.164Z,9.40
2019-05-25T21:53:26.787Z,9.30
2019-05-25T21:56:00.332Z,9.30
2019-05-25T21:58:30.867Z,9.10
2019-05-25T22:01:01.504Z,9.10
2019-05-25T22:03:33.605Z,9.00
2019-05-25T22:06:21.436Z,8.90
2019-05-25T22:08:42.495Z,8.80
2019-05-25T22:11:14.932Z,8.80
2019-05-25T22:13:45.522Z,8.70
2019-05-25T22:16:15.935Z,8.70
2019-05-25T22:18:46.341Z,8.60
2019-05-25T22:21:16.741Z,8.60
2019-05-25T22:23:47.731Z,8.60
2019-05-25T22:26:18.241Z,8.50
2019-05-25T22:28:48.635Z,8.50
2019-05-25T22:31:19.007Z,8.40
2019-05-25T22:33:49.715Z,8.40
2019-05-25T22:36:20.126Z,8.40
2019-05-25T22:38:50.555Z,8.30
2019-05-25T22:41:21.036Z,8.30
2019-05-25T22:43:51.376Z,8.30
2019-05-25T22:46:22.922Z,8.20
2019-05-25T22:48:53.309Z,8.20
2019-05-25T22:51:23.952Z,8.10
2019-05-25T22:53:54.376Z,8.00
2019-05-25T22:59:25.772Z,7.90
2019-05-25T23:01:56.216Z,7.90
2019-05-25T23:04:26.645Z,7.80
2019-05-25T23:06:58.755Z,7.70
2019-05-25T23:09:33.171Z,7.70
2019-05-25T23:12:05.490Z,7.60
2019-05-25T23:14:35.880Z,7.60
2019-05-25T23:20:09.207Z,7.50
2019-05-25T23:22:39.702Z,7.50
2019-05-25T23:25:10.170Z,7.40
2019-05-25T23:27:40.912Z,7.40
2019-05-25T23:30:11.417Z,7.30
2019-05-25T23:32:42.009Z,7.30
2019-05-25T23:35:13.400Z,7.20
2019-05-25T23:37:43.870Z,7.20
2019-05-25T23:40:14.346Z,7.20
2019-05-25T23:42:44.950Z,7.20
2019-05-25T23:45:58.151Z,7.10
2019-05-25T23:48:29.416Z,7.10
2019-05-25T23:50:59.816Z,7.00
2019-05-25T23:53:31.181Z,7.00
2019-05-25T23:56:02.988Z,6.90
2019-05-25T23:58:33.471Z,6.90
